Weather at Ružomberok Airport

Public forecast

Using degrees Celsius for public forecast. Weather courtesy of forecast.io.

Closest aviation weather report (METAR) to Ružomberok Airport

Closest report is Žilina-Dolný Hričov Airport, 31.0 nm (57.3 km) WNW.

2024/06/22 13:00 (retrieved 18 minutes ago)

LZZI 221300Z 28003KT 210V340 9999 SCT024 21/15 Q1013

Closest aviation forecast (TAF) to Ružomberok Airport

Forecast is more than 6 hours old.

Closest forecast is Sliač Airport, 28.4 nm (52.7 km) SSW.

2024/06/22 06:39 (retrieved 7 hours ago)

TAF TAF LZSL 220430Z 2206/2218 VRB02KT CAVOK TEMPO 2208/2214 35006KT -SHRA FEW040TCU BKN045 PROB40 TEMPO 2210/2213 VRB10KT 5000 -TSRA FEW020 FEW025CB BKN035 BECMG 2216/2218 01006KT